sensor_id;sensor_type;location;lat;lon;timestamp;pressure;altitude;pressure_sealevel;temperature;humidity
9740;BME280;4909;42.680;26.324;2023-08-30T00:01:30;97564.72;;;26.98;57.52
9740;BME280;4909;42.680;26.324;2023-08-30T00:03:57;97565.81;;;27.03;56.11
9740;BME280;4909;42.680;26.324;2023-08-30T00:06:25;97558.03;;;27.00;57.52
9740;BME280;4909;42.680;26.324;2023-08-30T00:08:52;97562.03;;;26.83;58.32
9740;BME280;4909;42.680;26.324;2023-08-30T00:11:19;97556.50;;;26.70;57.84
9740;BME280;4909;42.680;26.324;2023-08-30T00:13:46;97519.72;;;26.53;57.85
9740;BME280;4909;42.680;26.324;2023-08-30T00:16:13;97552.16;;;26.75;58.02
9740;BME280;4909;42.680;26.324;2023-08-30T00:18:42;97554.03;;;26.96;57.01
9740;BME280;4909;42.680;26.324;2023-08-30T00:21:09;97551.94;;;26.98;56.65
9740;BME280;4909;42.680;26.324;2023-08-30T00:23:37;97543.41;;;27.01;57.58
9740;BME280;4909;42.680;26.324;2023-08-30T00:26:04;97542.31;;;26.96;57.89
9740;BME280;4909;42.680;26.324;2023-08-30T00:28:31;97547.78;;;27.02;57.47
9740;BME280;4909;42.680;26.324;2023-08-30T00:30:58;97551.41;;;27.09;56.68
9740;BME280;4909;42.680;26.324;2023-08-30T00:33:24;97546.00;;;27.16;56.69
9740;BME280;4909;42.680;26.324;2023-08-30T00:35:58;97544.34;;;27.15;56.82
9740;BME280;4909;42.680;26.324;2023-08-30T00:38:26;97552.50;;;27.15;56.72
9740;BME280;4909;42.680;26.324;2023-08-30T00:40:54;97548.25;;;27.06;56.72
9740;BME280;4909;42.680;26.324;2023-08-30T00:43:21;97550.47;;;26.96;57.75
9740;BME280;4909;42.680;26.324;2023-08-30T00:45:47;97541.97;;;26.84;58.00
9740;BME280;4909;42.680;26.324;2023-08-30T00:48:14;97547.94;;;26.94;57.98
9740;BME280;4909;42.680;26.324;2023-08-30T00:50:42;97545.59;;;26.70;57.84
9740;BME280;4909;42.680;26.324;2023-08-30T00:53:10;97542.31;;;26.53;58.13
9740;BME280;4909;42.680;26.324;2023-08-30T00:55:37;97547.13;;;26.51;59.19
9740;BME280;4909;42.680;26.324;2023-08-30T00:58:07;97543.91;;;26.69;58.08
9740;BME280;4909;42.680;26.324;2023-08-30T01:00:36;97552.28;;;26.89;57.99
9740;BME280;4909;42.680;26.324;2023-08-30T01:03:05;97546.38;;;26.85;57.95
9740;BME280;4909;42.680;26.324;2023-08-30T01:05:32;97544.13;;;26.89;58.42
9740;BME280;4909;42.680;26.324;2023-08-30T01:07:59;97544.88;;;27.04;57.31
9740;BME280;4909;42.680;26.324;2023-08-30T01:10:35;97541.66;;;26.94;57.97
9740;BME280;4909;42.680;26.324;2023-08-30T01:13:09;97555.00;;;26.89;57.95
9740;BME280;4909;42.680;26.324;2023-08-30T01:15:39;97546.66;;;26.90;57.29
9740;BME280;4909;42.680;26.324;2023-08-30T01:18:09;97550.97;;;26.85;57.93
9740;BME280;4909;42.680;26.324;2023-08-30T01:20:37;97560.84;;;26.64;59.25
9740;BME280;4909;42.680;26.324;2023-08-30T01:23:06;97546.06;;;26.73;59.22
9740;BME280;4909;42.680;26.324;2023-08-30T01:25:45;97548.72;;;26.88;58.33
9740;BME280;4909;42.680;26.324;2023-08-30T01:28:16;97552.13;;;26.97;57.90
9740;BME280;4909;42.680;26.324;2023-08-30T01:30:46;97554.66;;;26.98;58.39
9740;BME280;4909;42.680;26.324;2023-08-30T01:33:14;97553.03;;;27.04;58.08
9740;BME280;4909;42.680;26.324;2023-08-30T01:35:43;97546.25;;;26.93;58.65
9740;BME280;4909;42.680;26.324;2023-08-30T01:38:10;97549.81;;;26.72;59.04
9740;BME280;4909;42.680;26.324;2023-08-30T01:40:39;97539.47;;;26.61;59.45
9740;BME280;4909;42.680;26.324;2023-08-30T01:43:08;97510.56;;;26.39;59.58
9740;BME280;4909;42.680;26.324;2023-08-30T01:45:39;97537.69;;;26.54;59.94
9740;BME280;4909;42.680;26.324;2023-08-30T01:48:09;97538.75;;;26.53;60.40
9740;BME280;4909;42.680;26.324;2023-08-30T01:50:36;97539.41;;;26.55;60.28
9740;BME280;4909;42.680;26.324;2023-08-30T01:53:04;97537.19;;;26.65;59.72
9740;BME280;4909;42.680;26.324;2023-08-30T01:55:32;97546.31;;;26.78;59.37
9740;BME280;4909;42.680;26.324;2023-08-30T01:57:59;97518.16;;;26.86;58.60
9740;BME280;4909;42.680;26.324;2023-08-30T02:00:26;97521.72;;;26.87;58.20
9740;BME280;4909;42.680;26.324;2023-08-30T02:02:54;97533.47;;;26.94;58.77
9740;BME280;4909;42.680;26.324;2023-08-30T02:05:20;97525.97;;;26.74;59.06
9740;BME280;4909;42.680;26.324;2023-08-30T02:07:53;97533.41;;;26.87;59.24
9740;BME280;4909;42.680;26.324;2023-08-30T02:10:24;97523.63;;;26.93;58.97
9740;BME280;4909;42.680;26.324;2023-08-30T02:12:54;97532.63;;;26.93;59.35
9740;BME280;4909;42.680;26.324;2023-08-30T02:15:24;97530.75;;;26.94;59.03
9740;BME280;4909;42.680;26.324;2023-08-30T02:17:53;97525.75;;;26.97;58.83
9740;BME280;4909;42.680;26.324;2023-08-30T02:20:20;97530.63;;;26.80;59.31
9740;BME280;4909;42.680;26.324;2023-08-30T02:22:47;97522.91;;;26.84;59.40
9740;BME280;4909;42.680;26.324;2023-08-30T02:25:14;97529.91;;;26.93;59.15
9740;BME280;4909;42.680;26.324;2023-08-30T02:27:40;97529.53;;;26.75;59.70
9740;BME280;4909;42.680;26.324;2023-08-30T02:30:08;97499.25;;;26.63;59.54
9740;BME280;4909;42.680;26.324;2023-08-30T02:32:34;97529.59;;;26.60;60.36
9740;BME280;4909;42.680;26.324;2023-08-30T02:35:03;97526.63;;;26.55;60.37
9740;BME280;4909;42.680;26.324;2023-08-30T02:37:30;97519.31;;;26.56;60.58
9740;BME280;4909;42.680;26.324;2023-08-30T02:39:57;97520.00;;;26.64;59.97
9740;BME280;4909;42.680;26.324;2023-08-30T02:42:23;97524.16;;;26.81;59.61
9740;BME280;4909;42.680;26.324;2023-08-30T02:44:51;97514.28;;;26.80;60.10
9740;BME280;4909;42.680;26.324;2023-08-30T02:47:18;97521.50;;;26.88;59.77
9740;BME280;4909;42.680;26.324;2023-08-30T02:49:45;97525.13;;;26.74;60.49
9740;BME280;4909;42.680;26.324;2023-08-30T02:52:13;97531.03;;;26.56;60.83
9740;BME280;4909;42.680;26.324;2023-08-30T02:54:40;97525.63;;;26.63;61.04
9740;BME280;4909;42.680;26.324;2023-08-30T02:57:06;97531.66;;;26.79;60.62
9740;BME280;4909;42.680;26.324;2023-08-30T02:59:33;97533.13;;;26.82;59.93
9740;BME280;4909;42.680;26.324;2023-08-30T03:02:00;97524.88;;;26.69;60.42
9740;BME280;4909;42.680;26.324;2023-08-30T03:04:27;97527.59;;;26.69;60.17
9740;BME280;4909;42.680;26.324;2023-08-30T03:06:54;97520.97;;;26.78;59.50
9740;BME280;4909;42.680;26.324;2023-08-30T03:09:22;97526.75;;;26.68;60.27
9740;BME280;4909;42.680;26.324;2023-08-30T03:11:48;97531.59;;;26.73;59.92
9740;BME280;4909;42.680;26.324;2023-08-30T03:14:15;97537.25;;;26.71;60.71
9740;BME280;4909;42.680;26.324;2023-08-30T03:16:42;97540.59;;;26.73;60.20
9740;BME280;4909;42.680;26.324;2023-08-30T03:19:10;97551.19;;;26.62;61.25
9740;BME280;4909;42.680;26.324;2023-08-30T03:21:37;97543.03;;;26.62;61.13
9740;BME280;4909;42.680;26.324;2023-08-30T03:24:04;97551.81;;;26.64;61.44
9740;BME280;4909;42.680;26.324;2023-08-30T03:26:32;97547.25;;;26.43;61.97
9740;BME280;4909;42.680;26.324;2023-08-30T03:28:59;97542.31;;;26.32;62.67
9740;BME280;4909;42.680;26.324;2023-08-30T03:31:26;97539.09;;;26.43;62.60
9740;BME280;4909;42.680;26.324;2023-08-30T03:33:53;97545.03;;;26.53;62.27
9740;BME280;4909;42.680;26.324;2023-08-30T03:36:19;97537.44;;;26.70;63.32
9740;BME280;4909;42.680;26.324;2023-08-30T03:38:46;97543.03;;;26.62;63.95
9740;BME280;4909;42.680;26.324;2023-08-30T03:41:14;97535.13;;;26.67;62.67
9740;BME280;4909;42.680;26.324;2023-08-30T03:43:42;97503.78;;;26.28;64.80
9740;BME280;4909;42.680;26.324;2023-08-30T03:46:09;97533.97;;;26.33;65.34
9740;BME280;4909;42.680;26.324;2023-08-30T03:48:37;97536.69;;;26.33;66.47
9740;BME280;4909;42.680;26.324;2023-08-30T03:51:03;97536.69;;;26.33;66.95
9740;BME280;4909;42.680;26.324;2023-08-30T03:53:30;97537.91;;;26.31;66.97
9740;BME280;4909;42.680;26.324;2023-08-30T03:55:57;97532.41;;;26.46;66.17
9740;BME280;4909;42.680;26.324;2023-08-30T03:58:24;97528.56;;;26.61;67.13
9740;BME280;4909;42.680;26.324;2023-08-30T04:00:53;97543.81;;;26.56;65.55
9740;BME280;4909;42.680;26.324;2023-08-30T04:03:19;97545.50;;;26.57;66.21
9740;BME280;4909;42.680;26.324;2023-08-30T04:05:46;97545.69;;;26.55;64.94
9740;BME280;4909;42.680;26.324;2023-08-30T04:08:13;97541.22;;;26.48;66.15
9740;BME280;4909;42.680;26.324;2023-08-30T04:10:41;97541.81;;;26.43;64.67
9740;BME280;4909;42.680;26.324;2023-08-30T04:13:09;97549.31;;;26.41;65.15
9740;BME280;4909;42.680;26.324;2023-08-30T04:15:36;97533.50;;;26.30;65.82
9740;BME280;4909;42.680;26.324;2023-08-30T04:18:06;97532.50;;;26.16;66.76
9740;BME280;4909;42.680;26.324;2023-08-30T04:20:33;97534.53;;;26.14;68.46
9740;BME280;4909;42.680;26.324;2023-08-30T04:23:00;97533.03;;;26.26;67.58
9740;BME280;4909;42.680;26.324;2023-08-30T04:25:28;97532.91;;;26.34;67.38
9740;BME280;4909;42.680;26.324;2023-08-30T04:27:55;97537.41;;;26.42;67.28
9740;BME280;4909;42.680;26.324;2023-08-30T04:30:22;97539.41;;;26.55;66.67
9740;BME280;4909;42.680;26.324;2023-08-30T04:32:49;97531.66;;;26.58;66.20
9740;BME280;4909;42.680;26.324;2023-08-30T04:35:17;97538.69;;;26.67;65.74
9740;BME280;4909;42.680;26.324;2023-08-30T04:37:44;97542.22;;;26.68;65.55
9740;BME280;4909;42.680;26.324;2023-08-30T04:40:10;97554.22;;;26.73;65.97
9740;BME280;4909;42.680;26.324;2023-08-30T04:42:38;97553.88;;;26.83;64.43
9740;BME280;4909;42.680;26.324;2023-08-30T04:45:07;97554.69;;;26.77;65.34
9740;BME280;4909;42.680;26.324;2023-08-30T04:47:35;97560.47;;;26.67;64.93
9740;BME280;4909;42.680;26.324;2023-08-30T04:50:02;97563.13;;;26.61;63.90
9740;BME280;4909;42.680;26.324;2023-08-30T04:52:30;97562.19;;;26.54;65.19
9740;BME280;4909;42.680;26.324;2023-08-30T04:54:58;97561.28;;;26.68;65.74
9740;BME280;4909;42.680;26.324;2023-08-30T04:57:25;97554.69;;;26.77;65.77
9740;BME280;4909;42.680;26.324;2023-08-30T04:59:51;97563.56;;;26.86;66.05
9740;BME280;4909;42.680;26.324;2023-08-30T05:02:18;97519.31;;;26.56;65.31
9740;BME280;4909;42.680;26.324;2023-08-30T05:04:45;97573.47;;;26.93;64.60
9740;BME280;4909;42.680;26.324;2023-08-30T05:07:12;97576.06;;;27.01;65.53
9740;BME280;4909;42.680;26.324;2023-08-30T05:09:40;97577.22;;;26.92;65.20
9740;BME280;4909;42.680;26.324;2023-08-30T05:12:07;97580.47;;;27.02;65.50
9740;BME280;4909;42.680;26.324;2023-08-30T05:14:34;97582.81;;;27.05;65.39
9740;BME280;4909;42.680;26.324;2023-08-30T05:17:01;97585.19;;;27.15;65.60
9740;BME280;4909;42.680;26.324;2023-08-30T05:19:30;97587.94;;;27.21;64.67
9740;BME280;4909;42.680;26.324;2023-08-30T05:21:56;97595.00;;;27.09;65.26
9740;BME280;4909;42.680;26.324;2023-08-30T05:24:23;97589.69;;;27.01;65.13
9740;BME280;4909;42.680;26.324;2023-08-30T05:26:53;97597.56;;;27.17;64.90
9740;BME280;4909;42.680;26.324;2023-08-30T05:29:19;97600.13;;;27.25;63.32
9740;BME280;4909;42.680;26.324;2023-08-30T05:31:46;97590.81;;;27.13;65.66
9740;BME280;4909;42.680;26.324;2023-08-30T05:34:13;97596.28;;;27.13;66.56
9740;BME280;4909;42.680;26.324;2023-08-30T05:36:40;97588.03;;;27.07;66.37
9740;BME280;4909;42.680;26.324;2023-08-30T05:39:07;97592.06;;;27.39;65.17
9740;BME280;4909;42.680;26.324;2023-08-30T05:41:33;97597.88;;;27.57;63.61
9740;BME280;4909;42.680;26.324;2023-08-30T05:44:02;97596.41;;;27.61;62.24
9740;BME280;4909;42.680;26.324;2023-08-30T05:46:29;97596.06;;;27.71;61.38
9740;BME280;4909;42.680;26.324;2023-08-30T05:48:56;97586.66;;;27.73;61.69
9740;BME280;4909;42.680;26.324;2023-08-30T05:51:22;97585.16;;;27.71;62.84
9740;BME280;4909;42.680;26.324;2023-08-30T05:53:49;97587.69;;;27.72;63.28
9740;BME280;4909;42.680;26.324;2023-08-30T05:56:16;97587.28;;;27.75;63.04
9740;BME280;4909;42.680;26.324;2023-08-30T05:58:43;97594.81;;;27.73;61.29
9740;BME280;4909;42.680;26.324;2023-08-30T06:01:11;97603.66;;;27.47;61.25
9740;BME280;4909;42.680;26.324;2023-08-30T06:03:38;97594.84;;;27.17;62.04
9740;BME280;4909;42.680;26.324;2023-08-30T06:06:05;97592.50;;;27.14;62.51
9740;BME280;4909;42.680;26.324;2023-08-30T06:08:32;97594.66;;;27.25;62.29
9740;BME280;4909;42.680;26.324;2023-08-30T06:10:59;97591.06;;;27.18;63.63
9740;BME280;4909;42.680;26.324;2023-08-30T06:13:25;97587.34;;;27.26;63.66
9740;BME280;4909;42.680;26.324;2023-08-30T06:15:52;97585.03;;;27.23;65.76
9740;BME280;4909;42.680;26.324;2023-08-30T06:18:20;97589.88;;;27.00;64.83
9740;BME280;4909;42.680;26.324;2023-08-30T06:20:47;97588.03;;;27.07;65.66
9740;BME280;4909;42.680;26.324;2023-08-30T06:23:14;97590.97;;;27.05;66.11
9740;BME280;4909;42.680;26.324;2023-08-30T06:25:41;97590.47;;;27.23;66.14
9740;BME280;4909;42.680;26.324;2023-08-30T06:28:08;97592.09;;;27.45;67.23
9740;BME280;4909;42.680;26.324;2023-08-30T06:30:35;97547.25;;;27.13;68.39
9740;BME280;4909;42.680;26.324;2023-08-30T06:33:03;97586.63;;;27.45;70.28
9740;BME280;4909;42.680;26.324;2023-08-30T06:35:32;97583.34;;;27.50;69.76
9740;BME280;4909;42.680;26.324;2023-08-30T06:37:58;97593.03;;;27.52;70.33
9740;BME280;4909;42.680;26.324;2023-08-30T06:40:25;97595.94;;;27.51;71.64
9740;BME280;4909;42.680;26.324;2023-08-30T06:42:52;97601.38;;;27.79;71.48
9740;BME280;4909;42.680;26.324;2023-08-30T06:45:19;97603.97;;;28.00;71.02
9740;BME280;4909;42.680;26.324;2023-08-30T06:47:45;97606.28;;;27.96;70.82
9740;BME280;4909;42.680;26.324;2023-08-30T06:50:14;97608.94;;;28.24;70.29
9740;BME280;4909;42.680;26.324;2023-08-30T06:52:42;97568.03;;;27.83;71.04
9740;BME280;4909;42.680;26.324;2023-08-30T06:55:09;97614.50;;;28.09;71.99
9740;BME280;4909;42.680;26.324;2023-08-30T06:57:36;97616.06;;;28.25;71.22
9740;BME280;4909;42.680;26.324;2023-08-30T07:00:03;97624.53;;;28.37;70.22
9740;BME280;4909;42.680;26.324;2023-08-30T07:02:33;97625.56;;;28.36;71.64
9740;BME280;4909;42.680;26.324;2023-08-30T07:05:01;97599.47;;;28.20;70.82
9740;BME280;4909;42.680;26.324;2023-08-30T07:07:30;97628.44;;;28.21;71.56
9740;BME280;4909;42.680;26.324;2023-08-30T07:09:58;97626.56;;;28.28;71.94
9740;BME280;4909;42.680;26.324;2023-08-30T07:12:25;97625.41;;;28.57;69.39
9740;BME280;4909;42.680;26.324;2023-08-30T07:14:52;97630.97;;;28.97;68.75
9740;BME280;4909;42.680;26.324;2023-08-30T07:17:20;97631.19;;;29.02;66.85
9740;BME280;4909;42.680;26.324;2023-08-30T07:19:46;97621.50;;;29.06;67.61
9740;BME280;4909;42.680;26.324;2023-08-30T07:22:13;97626.16;;;29.18;67.65
9740;BME280;4909;42.680;26.324;2023-08-30T07:24:42;97633.09;;;29.14;67.91
9740;BME280;4909;42.680;26.324;2023-08-30T07:27:10;97625.72;;;28.88;69.44
9740;BME280;4909;42.680;26.324;2023-08-30T07:29:38;97610.38;;;28.87;69.92
9740;BME280;4909;42.680;26.324;2023-08-30T07:32:05;97620.47;;;29.00;69.25
9740;BME280;4909;42.680;26.324;2023-08-30T07:34:32;97624.47;;;29.04;69.51
9740;BME280;4909;42.680;26.324;2023-08-30T07:36:59;97597.97;;;28.78;69.09
9740;BME280;4909;42.680;26.324;2023-08-30T07:39:26;97616.88;;;29.19;68.31
9740;BME280;4909;42.680;26.324;2023-08-30T07:41:52;97613.56;;;29.24;66.92
9740;BME280;4909;42.680;26.324;2023-08-30T07:44:20;97616.06;;;29.25;66.11
9740;BME280;4909;42.680;26.324;2023-08-30T07:46:47;97614.41;;;29.38;66.28
9740;BME280;4909;42.680;26.324;2023-08-30T07:49:14;97611.81;;;29.75;65.20
9740;BME280;4909;42.680;26.324;2023-08-30T07:51:41;97621.06;;;29.68;64.05
9740;BME280;4909;42.680;26.324;2023-08-30T07:54:08;97617.41;;;30.07;64.00
9740;BME280;4909;42.680;26.324;2023-08-30T07:56:34;97598.69;;;30.55;61.25
9740;BME280;4909;42.680;26.324;2023-08-30T07:59:01;97611.28;;;30.94;59.08
9740;BME280;4909;42.680;26.324;2023-08-30T08:01:29;97611.97;;;31.21;58.80
9740;BME280;4909;42.680;26.324;2023-08-30T08:03:56;97599.63;;;31.36;57.62
9740;BME280;4909;42.680;26.324;2023-08-30T08:06:23;97605.09;;;31.36;57.60
9740;BME280;4909;42.680;26.324;2023-08-30T08:08:49;97601.53;;;31.61;57.51
9740;BME280;4909;42.680;26.324;2023-08-30T08:11:16;97609.91;;;31.66;55.56
9740;BME280;4909;42.680;26.324;2023-08-30T08:13:43;97612.22;;;31.37;57.49
9740;BME280;4909;42.680;26.324;2023-08-30T08:16:11;97606.75;;;31.37;57.62
9740;BME280;4909;42.680;26.324;2023-08-30T08:18:39;97602.56;;;31.60;57.31
9740;BME280;4909;42.680;26.324;2023-08-30T08:21:06;97597.88;;;31.85;56.32
9740;BME280;4909;42.680;26.324;2023-08-30T08:23:33;97606.41;;;31.77;56.27
9740;BME280;4909;42.680;26.324;2023-08-30T08:26:00;97599.84;;;31.53;56.76
9740;BME280;4909;42.680;26.324;2023-08-30T08:28:28;97602.22;;;31.49;57.58
9740;BME280;4909;42.680;26.324;2023-08-30T08:30:55;97601.38;;;31.49;57.90
9740;BME280;4909;42.680;26.324;2023-08-30T08:33:21;97592.66;;;31.59;58.51
9740;BME280;4909;42.680;26.324;2023-08-30T08:35:51;97594.63;;;31.52;57.61
9740;BME280;4909;42.680;26.324;2023-08-30T08:38:17;97595.94;;;31.42;57.66
9740;BME280;4909;42.680;26.324;2023-08-30T08:40:44;97594.38;;;31.53;56.94
9740;BME280;4909;42.680;26.324;2023-08-30T08:43:11;97600.22;;;31.63;56.49
9740;BME280;4909;42.680;26.324;2023-08-30T08:45:38;97601.06;;;31.64;55.13
9740;BME280;4909;42.680;26.324;2023-08-30T08:48:06;97597.94;;;31.78;54.37
9740;BME280;4909;42.680;26.324;2023-08-30T08:50:33;97595.81;;;31.80;54.10
9740;BME280;4909;42.680;26.324;2023-08-30T08:53:02;97609.53;;;31.80;50.79
9740;BME280;4909;42.680;26.324;2023-08-30T08:55:30;97606.34;;;31.83;51.29
9740;BME280;4909;42.680;26.324;2023-08-30T08:57:58;97616.56;;;31.95;49.16
9740;BME280;4909;42.680;26.324;2023-08-30T09:00:25;97613.50;;;31.84;50.63
9740;BME280;4909;42.680;26.324;2023-08-30T09:02:53;97618.69;;;31.74;50.94
9740;BME280;4909;42.680;26.324;2023-08-30T09:05:20;97613.72;;;31.83;47.75
9740;BME280;4909;42.680;26.324;2023-08-30T09:07:48;97612.72;;;31.96;50.07
9740;BME280;4909;42.680;26.324;2023-08-30T09:10:20;97612.72;;;31.96;52.44
9740;BME280;4909;42.680;26.324;2023-08-30T09:12:47;97619.53;;;32.11;51.67
9740;BME280;4909;42.680;26.324;2023-08-30T09:15:13;97616.19;;;32.09;49.05
9740;BME280;4909;42.680;26.324;2023-08-30T09:17:41;97608.16;;;32.08;52.32
9740;BME280;4909;42.680;26.324;2023-08-30T09:20:09;97612.09;;;32.18;53.88
9740;BME280;4909;42.680;26.324;2023-08-30T09:22:37;97614.50;;;32.08;54.50
9740;BME280;4909;42.680;26.324;2023-08-30T09:25:04;97598.72;;;32.22;53.36
9740;BME280;4909;42.680;26.324;2023-08-30T09:27:33;97596.34;;;32.25;53.65
9740;BME280;4909;42.680;26.324;2023-08-30T09:30:00;97593.81;;;32.42;52.76
9740;BME280;4909;42.680;26.324;2023-08-30T09:32:27;97596.63;;;32.35;52.95
9740;BME280;4909;42.680;26.324;2023-08-30T09:34:53;97589.50;;;32.16;53.58
9740;BME280;4909;42.680;26.324;2023-08-30T09:37:21;97588.28;;;32.12;52.09
9740;BME280;4909;42.680;26.324;2023-08-30T09:39:51;97581.16;;;31.86;53.15
9740;BME280;4909;42.680;26.324;2023-08-30T09:42:17;97569.28;;;32.11;52.61
9740;BME280;4909;42.680;26.324;2023-08-30T09:44:46;97582.69;;;32.37;53.12
9740;BME280;4909;42.680;26.324;2023-08-30T09:47:13;97584.59;;;32.37;51.26
9740;BME280;4909;42.680;26.324;2023-08-30T09:49:43;97586.50;;;32.36;48.72
9740;BME280;4909;42.680;26.324;2023-08-30T09:52:12;97581.22;;;32.34;49.48
9740;BME280;4909;42.680;26.324;2023-08-30T09:54:41;97579.78;;;32.32;49.88
9740;BME280;4909;42.680;26.324;2023-08-30T09:57:09;97584.47;;;32.13;49.86
9740;BME280;4909;42.680;26.324;2023-08-30T09:59:37;97577.44;;;32.17;51.12
9740;BME280;4909;42.680;26.324;2023-08-30T10:02:07;97579.19;;;31.93;52.41
9740;BME280;4909;42.680;26.324;2023-08-30T10:04:37;97569.44;;;31.61;52.80
9740;BME280;4909;42.680;26.324;2023-08-30T10:07:06;97568.22;;;31.93;52.00
9740;BME280;4909;42.680;26.324;2023-08-30T10:09:33;97570.75;;;31.95;50.52
9740;BME280;4909;42.680;26.324;2023-08-30T10:12:01;97568.59;;;32.15;50.51
9740;BME280;4909;42.680;26.324;2023-08-30T10:14:29;97569.41;;;32.34;49.37
9740;BME280;4909;42.680;26.324;2023-08-30T10:17:01;97577.91;;;32.32;48.43
9740;BME280;4909;42.680;26.324;2023-08-30T10:19:31;97574.81;;;32.41;48.72
9740;BME280;4909;42.680;26.324;2023-08-30T10:22:02;97572.69;;;32.43;46.51
9740;BME280;4909;42.680;26.324;2023-08-30T10:24:31;97575.38;;;32.31;46.51
9740;BME280;4909;42.680;26.324;2023-08-30T10:27:00;97568.25;;;32.42;45.98
9740;BME280;4909;42.680;26.324;2023-08-30T10:29:29;97577.13;;;32.25;45.98
9740;BME280;4909;42.680;26.324;2023-08-30T10:32:02;97570.03;;;31.81;45.57
9740;BME280;4909;42.680;26.324;2023-08-30T10:34:33;97573.94;;;31.92;45.29
9740;BME280;4909;42.680;26.324;2023-08-30T10:37:02;97561.13;;;32.04;44.36
9740;BME280;4909;42.680;26.324;2023-08-30T10:39:36;97540.25;;;31.85;45.62
9740;BME280;4909;42.680;26.324;2023-08-30T10:42:08;97566.16;;;31.89;45.90
9740;BME280;4909;42.680;26.324;2023-08-30T10:44:46;97558.44;;;31.98;47.18
9740;BME280;4909;42.680;26.324;2023-08-30T10:47:18;97557.03;;;32.13;46.09
9740;BME280;4909;42.680;26.324;2023-08-30T10:49:48;97553.69;;;32.41;46.37
9740;BME280;4909;42.680;26.324;2023-08-30T10:52:15;97554.78;;;32.22;47.00
9740;BME280;4909;42.680;26.324;2023-08-30T10:54:42;97556.31;;;31.81;48.52
9740;BME280;4909;42.680;26.324;2023-08-30T10:57:13;97550.53;;;31.71;48.22
9740;BME280;4909;42.680;26.324;2023-08-30T10:59:47;97546.34;;;31.69;48.32
9740;BME280;4909;42.680;26.324;2023-08-30T11:02:14;97541.06;;;31.67;48.24
9740;BME280;4909;42.680;26.324;2023-08-30T11:04:41;97541.38;;;31.77;47.30
9740;BME280;4909;42.680;26.324;2023-08-30T11:07:11;97531.41;;;31.83;46.78
9740;BME280;4909;42.680;26.324;2023-08-30T11:09:39;97532.75;;;31.92;46.78
9740;BME280;4909;42.680;26.324;2023-08-30T11:12:06;97537.81;;;31.95;46.85
9740;BME280;4909;42.680;26.324;2023-08-30T11:14:33;97531.38;;;32.01;45.61
9740;BME280;4909;42.680;26.324;2023-08-30T11:17:00;97519.72;;;31.87;45.82
9740;BME280;4909;42.680;26.324;2023-08-30T11:19:29;97511.47;;;32.06;45.93
9740;BME280;4909;42.680;26.324;2023-08-30T11:21:56;97511.41;;;32.12;46.23
9740;BME280;4909;42.680;26.324;2023-08-30T11:24:24;97501.94;;;32.08;46.06
9740;BME280;4909;42.680;26.324;2023-08-30T11:26:53;97483.06;;;32.30;44.89
9740;BME280;4909;42.680;26.324;2023-08-30T11:29:19;97495.41;;;32.39;46.29
9740;BME280;4909;42.680;26.324;2023-08-30T11:31:46;97494.59;;;32.39;44.44
9740;BME280;4909;42.680;26.324;2023-08-30T11:34:13;97497.06;;;32.28;44.62
9740;BME280;4909;42.680;26.324;2023-08-30T11:36:40;97492.06;;;32.37;43.93
9740;BME280;4909;42.680;26.324;2023-08-30T11:39:07;97496.09;;;32.34;43.44
9740;BME280;4909;42.680;26.324;2023-08-30T11:41:37;97480.31;;;32.30;43.38
9740;BME280;4909;42.680;26.324;2023-08-30T11:44:05;97497.31;;;32.39;43.38
9740;BME280;4909;42.680;26.324;2023-08-30T11:46:32;97492.63;;;32.27;43.33
9740;BME280;4909;42.680;26.324;2023-08-30T11:48:58;97481.00;;;32.14;43.62
9740;BME280;4909;42.680;26.324;2023-08-30T11:51:26;97480.69;;;32.04;44.22
9740;BME280;4909;42.680;26.324;2023-08-30T11:53:53;97479.72;;;32.10;44.52
9740;BME280;4909;42.680;26.324;2023-08-30T11:56:21;97475.66;;;32.19;44.34
9740;BME280;4909;42.680;26.324;2023-08-30T11:58:50;97473.63;;;32.26;44.97
9740;BME280;4909;42.680;26.324;2023-08-30T12:01:18;97440.50;;;32.09;44.79
9740;BME280;4909;42.680;26.324;2023-08-30T12:03:45;97468.19;;;32.38;43.99
9740;BME280;4909;42.680;26.324;2023-08-30T12:06:16;97464.47;;;32.44;43.23
9740;BME280;4909;42.680;26.324;2023-08-30T12:08:43;97463.13;;;32.23;43.03
9740;BME280;4909;42.680;26.324;2023-08-30T12:11:17;97469.06;;;32.20;43.60
9740;BME280;4909;42.680;26.324;2023-08-30T12:13:45;97468.25;;;32.19;43.14
9740;BME280;4909;42.680;26.324;2023-08-30T12:16:16;97464.94;;;32.29;43.64
9740;BME280;4909;42.680;26.324;2023-08-30T12:18:44;97460.41;;;32.34;43.40
9740;BME280;4909;42.680;26.324;2023-08-30T12:21:13;97422.66;;;32.18;42.92
9740;BME280;4909;42.680;26.324;2023-08-30T12:23:40;97449.53;;;32.28;42.72
9740;BME280;4909;42.680;26.324;2023-08-30T12:26:08;97439.88;;;32.37;42.40
9740;BME280;4909;42.680;26.324;2023-08-30T12:28:36;97446.94;;;32.45;39.11
9740;BME280;4909;42.680;26.324;2023-08-30T12:31:04;97441.81;;;32.60;38.71
9740;BME280;4909;42.680;26.324;2023-08-30T12:33:33;97439.31;;;32.47;41.37
9740;BME280;4909;42.680;26.324;2023-08-30T12:36:00;97446.09;;;32.44;43.15
9740;BME280;4909;42.680;26.324;2023-08-30T12:38:27;97446.47;;;32.48;41.13
9740;BME280;4909;42.680;26.324;2023-08-30T12:40:54;97412.53;;;32.42;41.13
9740;BME280;4909;42.680;26.324;2023-08-30T12:43:22;97443.44;;;32.67;41.67
9740;BME280;4909;42.680;26.324;2023-08-30T12:45:50;97440.75;;;32.61;40.15
9740;BME280;4909;42.680;26.324;2023-08-30T12:48:18;97435.13;;;32.56;40.30
9740;BME280;4909;42.680;26.324;2023-08-30T12:50:47;97441.69;;;32.55;40.31
9740;BME280;4909;42.680;26.324;2023-08-30T12:53:14;97431.28;;;32.45;40.78
9740;BME280;4909;42.680;26.324;2023-08-30T12:55:43;97410.13;;;32.34;40.89
9740;BME280;4909;42.680;26.324;2023-08-30T12:58:10;97408.72;;;32.43;40.90
9740;BME280;4909;42.680;26.324;2023-08-30T13:00:37;97394.03;;;32.38;40.59
9740;BME280;4909;42.680;26.324;2023-08-30T13:03:04;97426.28;;;32.54;40.42
9740;BME280;4909;42.680;26.324;2023-08-30T13:05:31;97421.28;;;32.51;41.49
9740;BME280;4909;42.680;26.324;2023-08-30T13:08:00;97429.16;;;32.59;38.99
9740;BME280;4909;42.680;26.324;2023-08-30T13:10:27;97418.84;;;32.72;38.74
9740;BME280;4909;42.680;26.324;2023-08-30T13:12:54;97416.44;;;32.76;39.37